Time;durP1;ratioP1;P1;durP2;ratioP2;P2;SDS_P1;SDS_P2;PMS_P1;PMS_P2;Temp;Humidity;BMP_temperature;BMP_pressure;BME280_temperature;BME280_humidity;BME280_pressure;Samples;Min_cycle;Max_cycle;Signal;HPM_P1;HPM_P2
2022/03/16 00:00:58;;;;;;;30.87;18.40;;;4.40;99.90;;;;;;5038312;28;20293;-89
2022/03/16 00:03:29;;;;;;;28.13;18.00;;;4.40;99.90;;;;;;5037351;28;20217;-90
2022/03/16 00:05:57;;;;;;;37.73;19.87;;;4.40;99.90;;;;;;5056681;28;20588;-89
2022/03/16 00:08:28;;;;;;;30.63;18.03;;;4.30;99.90;;;;;;5045999;28;20210;-91
2022/03/16 00:10:59;;;;;;;33.00;17.50;;;4.30;99.90;;;;;;5047692;28;20370;-89
2022/03/16 00:13:26;;;;;;;27.53;17.27;;;4.30;99.90;;;;;;5038410;28;20292;-89
2022/03/16 00:15:55;;;;;;;31.43;18.10;;;4.20;99.90;;;;;;5055862;28;20208;-89
2022/03/16 00:18:33;;;;;;;27.10;18.23;;;4.20;99.90;;;;;;5038473;28;20205;-89
2022/03/16 00:21:00;;;;;;;29.80;17.57;;;4.10;99.90;;;;;;5040150;28;20256;-89
2022/03/16 00:23:30;;;;;;;32.97;17.17;;;4.10;99.90;;;;;;5057959;28;20251;-89
2022/03/16 00:26:03;;;;;;;32.67;17.27;;;4.10;99.90;;;;;;5060420;28;20215;-88
2022/03/16 00:28:30;;;;;;;34.83;19.37;;;4.00;99.90;;;;;;5041862;28;20208;-89
2022/03/16 00:30:57;;;;;;;34.60;18.73;;;4.00;99.90;;;;;;5066072;28;20232;-89
2022/03/16 00:33:24;;;;;;;31.53;18.53;;;4.00;99.90;;;;;;5072875;28;20204;-88
2022/03/16 00:35:56;;;;;;;32.37;18.00;;;4.00;99.90;;;;;;5065904;28;20236;-89
2022/03/16 00:38:24;;;;;;;36.27;19.17;;;4.00;99.90;;;;;;5066756;28;20229;-88
2022/03/16 00:40:51;;;;;;;34.77;19.17;;;3.90;99.90;;;;;;5061665;28;20241;-89
2022/03/16 00:43:19;;;;;;;31.97;18.30;;;3.90;99.90;;;;;;5039054;28;20215;-89
2022/03/16 00:45:47;;;;;;;35.27;19.50;;;3.90;99.90;;;;;;5055933;28;20359;-88
2022/03/16 00:48:14;;;;;;;37.27;19.97;;;3.90;99.90;;;;;;5056616;28;20228;-88
2022/03/16 00:50:45;;;;;;;34.10;18.90;;;3.80;99.90;;;;;;5057924;28;20197;-89
2022/03/16 00:53:12;;;;;;;36.07;19.67;;;3.80;99.90;;;;;;5061652;28;20201;-89
2022/03/16 00:55:39;;;;;;;34.97;20.47;;;3.80;99.90;;;;;;5041062;28;20233;-89
2022/03/16 00:58:07;;;;;;;36.07;20.03;;;3.80;99.90;;;;;;5056934;28;20758;-91
2022/03/16 01:00:37;;;;;;;34.17;19.97;;;3.80;99.90;;;;;;5050733;28;20301;-89
2022/03/16 01:03:04;;;;;;;34.50;18.80;;;3.80;99.90;;;;;;5065404;28;20209;-90
2022/03/16 01:05:33;;;;;;;36.60;19.63;;;3.80;99.90;;;;;;5057860;28;20243;-88
2022/03/16 01:08:00;;;;;;;35.17;20.27;;;3.80;99.90;;;;;;5038262;28;20209;-90
2022/03/16 01:10:29;;;;;;;35.23;19.40;;;3.80;99.90;;;;;;5054647;28;20201;-89
2022/03/16 01:13:06;;;;;;;33.40;19.77;;;3.70;99.90;;;;;;5055541;28;20213;-89
2022/03/16 01:15:40;;;;;;;35.73;20.07;;;3.70;99.90;;;;;;5049518;28;20225;-90
2022/03/16 01:18:07;;;;;;;31.33;18.57;;;3.70;99.90;;;;;;5058243;28;20262;-87
2022/03/16 01:20:43;;;;;;;34.80;19.37;;;3.70;99.90;;;;;;5053870;28;20290;-88
2022/03/16 01:23:20;;;;;;;35.70;19.03;;;3.60;99.90;;;;;;5048084;28;20240;-89
2022/03/16 01:25:49;;;;;;;30.63;17.30;;;3.60;99.90;;;;;;5048760;28;20212;-86
2022/03/16 01:28:17;;;;;;;36.13;18.83;;;3.60;99.90;;;;;;5027022;28;20288;-92
2022/03/16 01:30:48;;;;;;;36.93;19.13;;;3.60;99.90;;;;;;5029944;28;20248;-90
2022/03/16 01:33:15;;;;;;;31.47;18.47;;;3.60;99.90;;;;;;5049626;28;20212;-89
2022/03/16 01:35:46;;;;;;;34.20;19.27;;;3.60;99.90;;;;;;5033681;28;20301;-87
2022/03/16 01:38:13;;;;;;;32.77;19.53;;;3.60;99.90;;;;;;5050032;28;20213;-88
2022/03/16 01:40:42;;;;;;;37.47;19.47;;;3.50;99.90;;;;;;5054200;28;20340;-89
2022/03/16 01:43:12;;;;;;;34.97;19.00;;;3.50;99.90;;;;;;5054716;28;20619;-90
2022/03/16 01:45:51;;;;;;;34.00;19.90;;;3.50;99.90;;;;;;5048237;28;20243;-90
2022/03/16 01:48:23;;;;;;;32.20;18.50;;;3.40;99.90;;;;;;5039722;28;20640;-90
2022/03/16 01:50:54;;;;;;;39.83;18.27;;;3.40;99.90;;;;;;5050666;28;20290;-89
2022/03/16 01:53:21;;;;;;;33.13;17.77;;;3.40;99.90;;;;;;5053488;28;20207;-89
2022/03/16 01:55:48;;;;;;;35.00;17.43;;;3.30;99.90;;;;;;5052973;28;20228;-88
2022/03/16 01:58:17;;;;;;;31.27;16.53;;;3.30;99.90;;;;;;5053352;28;20205;-89
2022/03/16 02:00:46;;;;;;;36.27;17.10;;;3.30;99.90;;;;;;5045186;28;20592;-89
2022/03/16 02:03:18;;;;;;;28.17;16.50;;;3.20;99.90;;;;;;5053693;28;20628;-89
2022/03/16 02:05:47;;;;;;;36.97;17.70;;;3.20;99.90;;;;;;5045622;28;20564;-88
2022/03/16 02:08:16;;;;;;;31.00;17.37;;;3.20;99.90;;;;;;5053072;28;20280;-88
2022/03/16 02:10:43;;;;;;;33.33;16.00;;;3.20;99.90;;;;;;5054086;28;20351;-89
2022/03/16 02:13:15;;;;;;;31.43;16.43;;;3.20;99.90;;;;;;5036753;28;20225;-90
2022/03/16 02:15:43;;;;;;;33.90;16.63;;;3.10;99.90;;;;;;5054380;28;20259;-89
2022/03/16 02:18:18;;;;;;;32.67;16.97;;;3.10;99.90;;;;;;5054399;28;20205;-87
2022/03/16 02:20:51;;;;;;;30.33;17.13;;;3.00;99.90;;;;;;5053692;28;20228;-88
2022/03/16 02:23:26;;;;;;;32.73;16.77;;;3.00;99.90;;;;;;5034988;28;20883;-89
2022/03/16 02:26:00;;;;;;;28.37;16.60;;;3.00;99.90;;;;;;5019190;28;20326;-87
2022/03/16 02:28:34;;;;;;;32.80;16.83;;;3.00;99.90;;;;;;5024348;28;20288;-87
2022/03/16 02:31:06;;;;;;;29.13;15.77;;;2.90;99.90;;;;;;5037075;28;20245;-89
2022/03/16 02:33:39;;;;;;;32.77;17.53;;;2.90;99.90;;;;;;5045977;28;20292;-87
2022/03/16 02:36:06;;;;;;;33.10;17.87;;;2.90;99.90;;;;;;5049345;28;20307;-86
2022/03/16 02:38:33;;;;;;;34.90;17.80;;;2.80;99.90;;;;;;5055890;28;20645;-88
2022/03/16 02:41:02;;;;;;;30.73;17.50;;;2.80;99.90;;;;;;5052578;28;20231;-88
2022/03/16 02:43:30;;;;;;;37.07;17.77;;;2.80;99.90;;;;;;5051654;28;20292;-87
2022/03/16 02:45:57;;;;;;;36.57;18.13;;;2.80;99.90;;;;;;5051105;28;20563;-87
2022/03/16 02:48:25;;;;;;;30.23;17.47;;;2.80;99.90;;;;;;5034204;28;20204;-90
2022/03/16 02:50:53;;;;;;;38.17;18.70;;;2.80;99.90;;;;;;5038817;28;20204;-88
2022/03/16 02:53:21;;;;;;;35.17;18.27;;;2.80;99.90;;;;;;5052222;28;20304;-87
2022/03/16 02:55:52;;;;;;;38.37;19.40;;;2.80;99.90;;;;;;5043314;28;20635;-87
2022/03/16 02:58:20;;;;;;;31.43;16.93;;;2.80;99.90;;;;;;5052333;28;20299;-88
2022/03/16 03:00:54;;;;;;;34.90;18.17;;;2.80;99.90;;;;;;5050710;28;20254;-88
2022/03/16 03:03:26;;;;;;;31.87;17.07;;;2.80;99.90;;;;;;5052629;28;20274;-88
2022/03/16 03:05:53;;;;;;;33.77;17.50;;;2.80;99.90;;;;;;5051088;28;20201;-88
2022/03/16 03:08:20;;;;;;;35.60;17.50;;;2.80;99.90;;;;;;5051838;28;20213;-89
2022/03/16 03:10:48;;;;;;;35.97;17.67;;;2.80;99.90;;;;;;5055661;28;20235;-90
2022/03/16 03:13:16;;;;;;;41.37;18.60;;;2.70;99.90;;;;;;5059346;28;20571;-87
2022/03/16 03:15:46;;;;;;;33.63;18.03;;;2.70;99.90;;;;;;5056370;28;20217;-88
2022/03/16 03:18:14;;;;;;;32.23;18.40;;;2.70;99.90;;;;;;5035988;28;20196;-88
2022/03/16 03:20:41;;;;;;;32.67;18.47;;;2.80;99.90;;;;;;5047491;28;20236;-89
2022/03/16 03:23:11;;;;;;;28.67;17.13;;;2.70;99.90;;;;;;5054639;28;20631;-87
2022/03/16 03:25:49;;;;;;;34.90;17.50;;;2.60;99.90;;;;;;5054811;28;20670;-87
2022/03/16 03:28:16;;;;;;;36.03;17.60;;;2.60;99.90;;;;;;5055705;28;20205;-89
2022/03/16 03:30:48;;;;;;;34.37;18.30;;;2.60;99.90;;;;;;5071966;28;20295;-89
2022/03/16 03:33:15;;;;;;;32.43;17.80;;;2.60;99.90;;;;;;5056057;28;20373;-87
2022/03/16 03:35:48;;;;;;;32.27;16.97;;;2.50;99.90;;;;;;5055374;28;20223;-90
2022/03/16 03:38:17;;;;;;;29.80;16.33;;;2.50;99.90;;;;;;5054175;28;20306;-87
2022/03/16 03:40:44;;;;;;;31.83;17.00;;;2.50;99.90;;;;;;5055506;28;20240;-89
2022/03/16 03:43:12;;;;;;;24.73;15.43;;;2.40;99.90;;;;;;5054589;28;20254;-90
2022/03/16 03:45:47;;;;;;;33.43;17.63;;;2.40;99.90;;;;;;5051928;28;20220;-87
2022/03/16 03:48:14;;;;;;;32.07;16.40;;;2.30;99.90;;;;;;5054865;28;20302;-90
2022/03/16 03:50:41;;;;;;;36.90;16.67;;;2.30;99.90;;;;;;5061948;28;20276;-87
2022/03/16 03:53:16;;;;;;;31.43;17.43;;;2.20;99.90;;;;;;5062411;28;20257;-88
2022/03/16 03:55:45;;;;;;;32.63;15.97;;;2.10;99.90;;;;;;5063959;28;20234;-88
2022/03/16 03:58:15;;;;;;;29.80;16.10;;;2.10;99.90;;;;;;5053910;28;20664;-88
2022/03/16 04:00:44;;;;;;;36.17;16.80;;;2.10;99.90;;;;;;5027830;28;20255;-88
2022/03/16 04:03:12;;;;;;;35.40;17.70;;;2.10;99.90;;;;;;5069804;28;20204;-87
2022/03/16 04:05:39;;;;;;;34.90;17.23;;;2.10;99.90;;;;;;5069227;28;20187;-89
2022/03/16 04:08:06;;;;;;;34.07;19.17;;;2.10;99.90;;;;;;5052152;28;20209;-89
2022/03/16 04:10:36;;;;;;;34.73;17.73;;;2.10;99.90;;;;;;5059313;28;20212;-88
2022/03/16 04:13:03;;;;;;;39.80;19.23;;;2.20;99.90;;;;;;5061123;28;20779;-90
2022/03/16 04:15:32;;;;;;;37.27;18.93;;;2.20;99.90;;;;;;5059663;28;20253;-88
2022/03/16 04:17:59;;;;;;;37.53;18.30;;;2.20;99.90;;;;;;5057483;28;20286;-89
2022/03/16 04:20:27;;;;;;;39.57;18.00;;;2.20;99.90;;;;;;5034010;28;20232;-87
2022/03/16 04:22:54;;;;;;;31.63;17.43;;;2.20;99.90;;;;;;5054124;28;20279;-87
2022/03/16 04:25:20;;;;;;;37.97;19.60;;;2.20;99.90;;;;;;5053532;28;20666;-89
2022/03/16 04:27:47;;;;;;;35.90;18.30;;;2.20;99.90;;;;;;5047958;28;20239;-88
2022/03/16 04:30:17;;;;;;;31.37;16.90;;;2.20;99.90;;;;;;5037113;28;20565;-90
2022/03/16 04:32:51;;;;;;;32.00;17.67;;;2.30;99.90;;;;;;5034017;28;20238;-88
2022/03/16 04:35:29;;;;;;;34.73;17.30;;;2.20;99.90;;;;;;5037277;28;20219;-88
2022/03/16 04:37:57;;;;;;;36.70;17.07;;;2.20;99.90;;;;;;5060067;28;20204;-89
2022/03/16 04:40:25;;;;;;;30.87;16.67;;;2.10;99.90;;;;;;5072225;28;20742;-91
2022/03/16 04:42:59;;;;;;;29.13;16.80;;;2.10;99.90;;;;;;5073380;28;20193;-88
2022/03/16 04:45:45;;;;;;;33.53;17.33;;;2.10;99.90;;;;;;5057525;28;20317;-88
2022/03/16 04:48:21;;;;;;;32.07;18.07;;;2.10;99.90;;;;;;5040463;28;20707;-88
2022/03/16 04:50:54;;;;;;;32.30;17.47;;;2.10;99.90;;;;;;5045556;28;20236;-89
2022/03/16 04:53:22;;;;;;;35.50;17.10;;;2.10;99.90;;;;;;5069909;28;20235;-90
2022/03/16 04:55:49;;;;;;;32.67;16.57;;;2.10;99.90;;;;;;5088960;28;20239;-89
2022/03/16 04:58:17;;;;;;;36.17;17.90;;;2.00;99.90;;;;;;5068286;28;20206;-89
2022/03/16 05:00:49;;;;;;;36.77;16.43;;;2.00;99.90;;;;;;5095112;28;20265;-89
2022/03/16 05:03:16;;;;;;;32.63;17.97;;;2.00;99.90;;;;;;5070695;28;20202;-89
2022/03/16 05:05:46;;;;;;;33.37;18.77;;;2.00;99.90;;;;;;5084618;28;20659;-89
2022/03/16 05:08:14;;;;;;;33.57;18.13;;;2.00;99.90;;;;;;5075688;28;20194;-88
2022/03/16 05:10:46;;;;;;;38.40;18.33;;;1.90;99.90;;;;;;5068838;28;20203;-88
2022/03/16 05:13:15;;;;;;;37.50;17.80;;;1.90;99.90;;;;;;5056842;28;20349;-86
2022/03/16 05:15:41;;;;;;;43.90;18.77;;;1.90;99.90;;;;;;5055942;28;20226;-85
2022/03/16 05:18:09;;;;;;;38.73;19.17;;;1.80;99.90;;;;;;5070433;28;20213;-87
2022/03/16 05:20:37;;;;;;;42.53;20.67;;;1.80;99.90;;;;;;5056299;28;20293;-88
2022/03/16 05:23:05;;;;;;;38.20;20.20;;;1.80;99.90;;;;;;5066764;28;20723;-88
2022/03/16 05:25:35;;;;;;;44.90;20.80;;;1.80;99.90;;;;;;5037025;28;20287;-88
2022/03/16 05:28:04;;;;;;;43.20;21.07;;;1.80;99.90;;;;;;5056362;28;20228;-86
2022/03/16 05:30:33;;;;;;;38.53;19.50;;;1.80;99.90;;;;;;5064346;28;20319;-86
2022/03/16 05:33:01;;;;;;;36.87;20.27;;;1.80;99.90;;;;;;5054481;28;20200;-88
2022/03/16 05:35:31;;;;;;;37.77;19.27;;;1.80;99.90;;;;;;5082819;28;20209;-88
2022/03/16 05:38:05;;;;;;;42.33;20.43;;;1.80;99.90;;;;;;5072322;28;20219;-87
2022/03/16 05:40:33;;;;;;;48.33;22.03;;;1.80;99.90;;;;;;5064513;28;20642;-87
2022/03/16 05:43:00;;;;;;;38.00;19.53;;;1.80;99.90;;;;;;5091508;28;20236;-86
2022/03/16 05:45:40;;;;;;;40.13;19.37;;;1.80;99.90;;;;;;5078840;28;20625;-87
2022/03/16 05:48:07;;;;;;;38.07;19.80;;;1.80;99.90;;;;;;5066997;28;20620;-88
2022/03/16 05:50:34;;;;;;;34.07;19.40;;;1.70;99.90;;;;;;5065477;28;20208;-88
2022/03/16 05:53:02;;;;;;;41.03;19.70;;;1.70;99.90;;;;;;5068585;28;20655;-87
2022/03/16 05:55:29;;;;;;;34.13;19.07;;;1.70;99.90;;;;;;5065433;28;20320;-87
2022/03/16 05:57:56;;;;;;;39.93;20.00;;;1.70;99.90;;;;;;5046927;28;20730;-89
2022/03/16 06:00:23;;;;;;;45.77;21.10;;;1.70;99.90;;;;;;5047142;28;20231;-88
2022/03/16 06:02:50;;;;;;;40.43;20.77;;;1.70;99.90;;;;;;5047260;28;20330;-88
2022/03/16 06:05:22;;;;;;;40.47;20.60;;;1.60;99.90;;;;;;5048339;28;20210;-88
2022/03/16 06:07:49;;;;;;;41.53;21.83;;;1.60;99.90;;;;;;5043181;28;20303;-89
2022/03/16 06:10:17;;;;;;;53.73;23.87;;;1.60;99.90;;;;;;5047224;28;20317;-86
2022/03/16 06:12:59;;;;;;;50.47;23.70;;;1.60;99.90;;;;;;5051279;28;20292;-87
2022/03/16 06:15:28;;;;;;;47.47;22.37;;;1.60;99.90;;;;;;5047879;28;20223;-88
2022/03/16 06:17:57;;;;;;;42.27;21.70;;;1.60;99.90;;;;;;5050269;28;20229;-90
2022/03/16 06:20:28;;;;;;;47.73;21.83;;;1.60;99.90;;;;;;5059591;28;20704;-87
2022/03/16 06:22:55;;;;;;;47.47;22.60;;;1.60;99.90;;;;;;5048939;28;20211;-90
2022/03/16 06:25:24;;;;;;;51.87;24.80;;;1.60;99.90;;;;;;5047901;28;20295;-88
2022/03/16 06:27:52;;;;;;;49.37;25.20;;;1.70;99.90;;;;;;5047218;28;20208;-90
2022/03/16 06:30:19;;;;;;;50.73;25.53;;;1.70;99.90;;;;;;5046637;28;20254;-88
2022/03/16 06:32:47;;;;;;;56.30;25.13;;;1.80;99.90;;;;;;5045504;28;20204;-89
2022/03/16 06:35:15;;;;;;;59.47;24.93;;;1.80;99.90;;;;;;5044270;28;20292;-87
2022/03/16 06:37:43;;;;;;;46.40;24.43;;;1.90;99.90;;;;;;5047836;28;20625;-89
2022/03/16 06:40:12;;;;;;;50.00;24.70;;;2.00;99.90;;;;;;5054815;28;20498;-90
2022/03/16 06:42:52;;;;;;;51.70;25.07;;;2.00;99.90;;;;;;5047887;28;20208;-87
2022/03/16 06:45:20;;;;;;;51.93;24.87;;;2.10;99.90;;;;;;5050318;28;20221;-88
2022/03/16 06:47:48;;;;;;;50.97;24.30;;;2.20;99.90;;;;;;5049269;28;20271;-87
2022/03/16 06:50:15;;;;;;;54.13;27.30;;;2.30;99.90;;;;;;5054986;28;20295;-88
2022/03/16 06:52:42;;;;;;;57.40;27.13;;;2.30;99.90;;;;;;5060261;28;20234;-87
2022/03/16 06:55:10;;;;;;;52.60;25.43;;;2.30;99.90;;;;;;5066208;28;20305;-89
2022/03/16 06:57:37;;;;;;;56.37;26.97;;;2.50;99.90;;;;;;5059433;28;20242;-86
2022/03/16 07:00:08;;;;;;;60.33;29.07;;;2.50;99.90;;;;;;5054347;28;20255;-89
2022/03/16 07:03:05;;;;;;;68.83;32.40;;;2.60;99.90;;;;;;5044466;28;20283;-87
2022/03/16 07:05:40;;;;;;;63.87;30.80;;;3.00;99.90;;;;;;5049161;28;20324;-89
2022/03/16 07:08:12;;;;;;;57.33;26.93;;;3.40;99.90;;;;;;5052828;28;20202;-89
2022/03/16 07:10:41;;;;;;;46.73;23.53;;;3.70;99.90;;;;;;5051683;28;20211;-87
2022/03/16 07:13:13;;;;;;;41.73;21.77;;;4.30;99.90;;;;;;5054552;28;20207;-86
2022/03/16 07:15:42;;;;;;;39.93;21.73;;;4.30;99.90;;;;;;5050724;28;20225;-88
2022/03/16 07:18:11;;;;;;;56.73;29.37;;;4.60;99.90;;;;;;5049080;28;20608;-88
2022/03/16 07:20:39;;;;;;;46.70;26.37;;;5.20;99.90;;;;;;5052378;28;20250;-87
2022/03/16 07:23:11;;;;;;;41.20;23.60;;;6.00;99.90;;;;;;5045197;28;20373;-87
2022/03/16 07:25:40;;;;;;;38.83;23.07;;;6.50;99.90;;;;;;5045403;28;20237;-86
2022/03/16 07:28:08;;;;;;;42.03;22.97;;;6.80;99.90;;;;;;5050546;28;20233;-86
2022/03/16 07:30:35;;;;;;;39.03;24.10;;;7.10;99.90;;;;;;5049004;28;20464;-87
2022/03/16 07:33:04;;;;;;;41.10;23.70;;;7.30;99.90;;;;;;5047984;28;20225;-87
2022/03/16 07:35:31;;;;;;;43.33;25.73;;;7.70;99.90;;;;;;5063289;28;20241;-87
2022/03/16 07:38:02;;;;;;;38.53;23.47;;;8.10;99.90;;;;;;5050326;28;20605;-87
2022/03/16 07:40:31;;;;;;;40.83;23.50;;;8.60;99.90;;;;;;5046342;28;20209;-85
2022/03/16 07:42:58;;;;;;;36.37;22.90;;;9.10;99.90;;;;;;5063557;28;20205;-89
2022/03/16 07:45:25;;;;;;;34.87;22.70;;;9.80;99.90;;;;;;5067255;28;20217;-88
2022/03/16 07:47:56;;;;;;;38.00;22.90;;;10.00;99.90;;;;;;5060698;28;20305;-87
2022/03/16 07:50:24;;;;;;;38.30;21.93;;;10.40;99.90;;;;;;5065820;28;20295;-88
2022/03/16 07:52:53;;;;;;;42.63;23.10;;;10.80;99.90;;;;;;5048534;28;20644;-88
2022/03/16 07:55:20;;;;;;;34.67;22.17;;;11.10;99.90;;;;;;5046838;28;20331;-88
2022/03/16 07:57:47;;;;;;;38.63;23.90;;;11.40;99.90;;;;;;5057558;28;20202;-89
2022/03/16 08:00:15;;;;;;;35.17;23.13;;;11.70;99.90;;;;;;5064169;28;20248;-87
2022/03/16 08:02:45;;;;;;;34.23;21.77;;;11.90;99.90;;;;;;5066333;28;20665;-87
2022/03/16 08:05:13;;;;;;;33.47;21.17;;;12.20;99.90;;;;;;5052229;28;20212;-88
2022/03/16 08:07:41;;;;;;;31.90;21.00;;;12.30;99.90;;;;;;5055376;28;20316;-88
2022/03/16 08:10:09;;;;;;;34.37;20.70;;;12.40;99.90;;;;;;5055069;28;20277;-89
2022/03/16 08:12:36;;;;;;;29.10;19.77;;;12.50;99.90;;;;;;5071138;28;20263;-87
2022/03/16 08:15:06;;;;;;;31.73;19.97;;;12.50;99.90;;;;;;5049260;28;20255;-91
2022/03/16 08:17:33;;;;;;;29.67;19.03;;;12.60;99.90;;;;;;5061504;28;20628;-88
2022/03/16 08:20:00;;;;;;;30.33;18.47;;;12.60;99.90;;;;;;5063796;28;20217;-87
2022/03/16 08:22:29;;;;;;;29.30;18.40;;;12.50;99.90;;;;;;5067958;28;20231;-88
2022/03/16 08:24:58;;;;;;;28.97;18.20;;;12.40;99.90;;;;;;5056153;28;20598;-90
2022/03/16 08:27:26;;;;;;;27.17;18.10;;;12.30;99.90;;;;;;5054006;28;20213;-87
2022/03/16 08:29:54;;;;;;;25.83;16.87;;;12.20;99.90;;;;;;5051310;28;20236;-89
2022/03/16 08:32:22;;;;;;;28.03;16.27;;;12.10;99.90;;;;;;5043654;28;20205;-88
2022/03/16 08:34:50;;;;;;;27.30;16.23;;;11.90;99.90;;;;;;5054228;28;20268;-88
2022/03/16 08:37:18;;;;;;;24.00;14.67;;;11.90;99.90;;;;;;5050025;28;20205;-86
2022/03/16 08:39:46;;;;;;;26.57;14.80;;;11.90;99.90;;;;;;5052401;28;20624;-90
2022/03/16 08:42:14;;;;;;;22.43;14.97;;;12.20;99.90;;;;;;5055522;28;20229;-88
2022/03/16 08:44:42;;;;;;;23.30;14.17;;;12.30;99.90;;;;;;5052612;28;20209;-89
2022/03/16 08:47:16;;;;;;;25.63;13.73;;;12.60;99.90;;;;;;5051299;28;20229;-89
2022/03/16 08:49:47;;;;;;;20.73;13.63;;;12.80;99.90;;;;;;5063085;28;20185;-88
2022/03/16 08:52:14;;;;;;;20.27;12.93;;;13.00;99.90;;;;;;5046449;28;20209;-87
2022/03/16 08:54:42;;;;;;;18.73;12.33;;;13.10;99.90;;;;;;5052432;28;20260;-88
2022/03/16 08:57:09;;;;;;;21.37;13.57;;;13.20;99.90;;;;;;5071903;28;20660;-88
2022/03/16 08:59:39;;;;;;;19.43;11.93;;;13.10;99.90;;;;;;5064335;28;20205;-87
2022/03/16 09:02:06;;;;;;;19.30;12.43;;;13.20;99.90;;;;;;5076755;28;20255;-88
2022/03/16 09:04:34;;;;;;;19.80;12.60;;;13.20;99.90;;;;;;5046335;28;20255;-86
2022/03/16 09:07:04;;;;;;;19.00;12.60;;;13.10;99.90;;;;;;5048148;28;20612;-84
2022/03/16 09:09:37;;;;;;;18.97;12.10;;;13.00;99.90;;;;;;5060816;28;20309;-87
2022/03/16 09:12:05;;;;;;;17.43;11.27;;;12.80;99.90;;;;;;5046838;28;20213;-89
2022/03/16 09:14:31;;;;;;;18.70;11.03;;;12.70;99.90;;;;;;5050835;28;20252;-87
2022/03/16 09:16:59;;;;;;;17.80;11.33;;;12.40;99.90;;;;;;5066649;28;20217;-88
2022/03/16 09:19:26;;;;;;;18.83;11.70;;;12.20;99.90;;;;;;5054111;28;20205;-87
2022/03/16 09:21:53;;;;;;;17.97;11.37;;;12.20;99.90;;;;;;5060252;28;20217;-87
2022/03/16 09:24:20;;;;;;;19.67;11.87;;;12.20;99.90;;;;;;5050670;28;20641;-86
2022/03/16 09:26:47;;;;;;;16.30;10.70;;;12.20;99.90;;;;;;5054789;28;20205;-88
2022/03/16 09:29:16;;;;;;;17.50;11.10;;;12.30;99.90;;;;;;5057697;28;20300;-88
2022/03/16 09:31:44;;;;;;;18.67;11.50;;;12.20;99.90;;;;;;5049423;28;20332;-87
2022/03/16 09:34:11;;;;;;;17.63;10.87;;;12.30;99.90;;;;;;5047548;28;20251;-87
2022/03/16 09:36:42;;;;;;;18.73;10.73;;;12.40;99.90;;;;;;5039420;28;20673;-85
2022/03/16 09:39:10;;;;;;;17.73;11.37;;;12.50;99.90;;;;;;5061643;28;20215;-88
2022/03/16 09:41:37;;;;;;;17.87;10.23;;;12.60;99.90;;;;;;5057934;28;20252;-89
2022/03/16 09:44:05;;;;;;;16.43;10.83;;;12.70;99.90;;;;;;5047225;28;20605;-88
2022/03/16 09:46:34;;;;;;;15.90;10.23;;;12.70;99.90;;;;;;5043779;28;20584;-86
2022/03/16 09:49:01;;;;;;;17.40;10.87;;;12.90;99.90;;;;;;5046528;28;20633;-86
2022/03/16 09:51:35;;;;;;;19.63;10.93;;;13.10;99.90;;;;;;5046471;28;20285;-87
2022/03/16 09:54:03;;;;;;;16.73;10.00;;;13.20;99.90;;;;;;5046300;28;20209;-86
2022/03/16 09:56:32;;;;;;;16.57;10.40;;;13.20;99.90;;;;;;5030554;28;20684;-85
2022/03/16 09:58:58;;;;;;;13.30;9.17;;;13.30;99.90;;;;;;5036501;28;20300;-86
2022/03/16 10:01:26;;;;;;;15.00;9.40;;;13.30;99.90;;;;;;5047096;28;20229;-86
2022/03/16 10:03:59;;;;;;;14.03;8.80;;;13.40;99.90;;;;;;5010135;28;20609;-87
2022/03/16 10:06:27;;;;;;;15.17;8.33;;;13.50;99.90;;;;;;5030529;28;20217;-87
2022/03/16 10:14:25;;;;;;;12.47;8.10;;;13.70;99.90;;;;;;5047296;28;20244;-88
2022/03/16 10:19:53;;;;;;;11.40;7.63;;;13.90;99.90;;;;;;5045470;28;20754;-86
2022/03/16 10:22:31;;;;;;;15.30;9.10;;;13.90;99.90;;;;;;5035049;28;20256;-87
2022/03/16 10:25:00;;;;;;;15.80;8.60;;;14.00;99.90;;;;;;5048636;28;20208;-87
2022/03/16 10:27:27;;;;;;;14.13;9.07;;;13.90;99.90;;;;;;5053347;28;20201;-86
2022/03/16 10:29:54;;;;;;;14.10;8.50;;;13.80;99.90;;;;;;5054100;28;20215;-87
2022/03/16 10:32:22;;;;;;;17.53;9.13;;;13.70;99.90;;;;;;5038858;28;20572;-86
2022/03/16 10:34:54;;;;;;;13.63;8.67;;;13.60;99.90;;;;;;5054140;28;20259;-86
2022/03/16 10:37:23;;;;;;;15.37;9.30;;;13.50;99.90;;;;;;5039152;28;20274;-86
2022/03/16 10:39:53;;;;;;;15.30;8.80;;;13.40;99.90;;;;;;5035791;28;20605;-87
2022/03/16 10:48:16;;;;;;;16.40;9.03;;;13.20;99.90;;;;;;5046338;28;20202;-85
2022/03/16 10:50:44;;;;;;;14.17;8.87;;;13.30;99.90;;;;;;5047845;28;20295;-86
2022/03/16 10:53:14;;;;;;;15.63;9.37;;;13.30;99.90;;;;;;5046787;28;20210;-86
2022/03/16 10:55:42;;;;;;;14.13;9.00;;;13.20;99.90;;;;;;5045922;28;20611;-84
2022/03/16 10:58:13;;;;;;;16.90;8.73;;;13.30;99.90;;;;;;5044934;28;20210;-86
2022/03/16 11:00:41;;;;;;;14.67;8.67;;;13.30;99.90;;;;;;5041798;28;20278;-86
2022/03/16 11:03:17;;;;;;;13.30;9.10;;;13.40;99.90;;;;;;5042838;28;20668;-84
2022/03/16 11:05:45;;;;;;;14.07;8.40;;;13.40;99.90;;;;;;5043640;28;20197;-87
2022/03/16 11:08:12;;;;;;;17.27;9.07;;;13.40;99.90;;;;;;5048852;28;20313;-85
2022/03/16 11:10:41;;;;;;;12.63;8.63;;;13.50;99.90;;;;;;5027832;28;20201;-87
2022/03/16 11:13:28;;;;;;;13.97;8.53;;;13.60;99.90;;;;;;5021409;28;20210;-85
2022/03/16 11:15:57;;;;;;;16.23;9.03;;;13.70;99.90;;;;;;5041979;28;20213;-85
2022/03/16 11:18:25;;;;;;;15.90;9.60;;;13.90;99.90;;;;;;5040215;28;20618;-86
2022/03/16 11:20:56;;;;;;;14.80;8.73;;;14.00;99.90;;;;;;5039134;28;20209;-85
2022/03/16 11:27:15;;;;;;;14.73;9.40;;;14.10;99.90;;;;;;5048885;28;20211;-87
2022/03/16 11:30:08;;;;;;;14.03;8.80;;;14.30;99.90;;;;;;4966223;28;20732;-86
2022/03/16 11:32:39;;;;;;;13.33;8.70;;;14.50;99.90;;;;;;5043967;28;20209;-86
2022/03/16 11:35:13;;;;;;;13.90;8.97;;;14.50;99.90;;;;;;5043587;28;20369;-86
2022/03/16 11:37:43;;;;;;;14.33;8.90;;;14.50;99.90;;;;;;5029993;28;20214;-87
2022/03/16 11:40:22;;;;;;;15.50;9.07;;;14.60;99.90;;;;;;5048197;28;20299;-87
2022/03/16 11:43:04;;;;;;;15.77;9.07;;;14.60;99.90;;;;;;5032630;28;20231;-88
2022/03/16 11:45:57;;;;;;;13.77;9.10;;;14.70;99.90;;;;;;5025466;28;20324;-89
2022/03/16 11:48:31;;;;;;;17.30;9.47;;;14.80;99.90;;;;;;5038859;28;20210;-85
2022/03/16 11:51:13;;;;;;;18.57;9.73;;;14.80;99.90;;;;;;5043090;28;20654;-88
2022/03/16 11:54:08;;;;;;;15.13;8.57;;;14.90;99.90;;;;;;5046984;28;20314;-86
2022/03/16 11:56:39;;;;;;;14.80;9.23;;;14.90;99.90;;;;;;5048140;28;20274;-88
2022/03/16 11:59:10;;;;;;;13.07;8.40;;;14.90;99.90;;;;;;5053501;28;20328;-86
2022/03/16 12:01:38;;;;;;;14.17;8.50;;;15.00;99.90;;;;;;5031144;28;20567;-87
2022/03/16 12:04:22;;;;;;;12.70;8.17;;;15.10;99.90;;;;;;5029267;28;20236;-90
2022/03/16 12:07:02;;;;;;;14.50;9.03;;;15.10;99.90;;;;;;5044552;28;20336;-87
2022/03/16 12:09:46;;;;;;;15.23;8.60;;;15.10;99.90;;;;;;5028836;28;20633;-88
2022/03/16 12:15:12;;;;;;;14.53;9.43;;;14.90;99.90;;;;;;5048638;28;20313;-87
2022/03/16 12:17:40;;;;;;;15.67;9.80;;;15.00;99.90;;;;;;5031902;28;21164;-88
2022/03/16 12:20:10;;;;;;;16.80;9.53;;;15.30;99.90;;;;;;5048788;28;20430;-87
2022/03/16 12:22:52;;;;;;;14.00;8.07;;;15.60;99.90;;;;;;5046422;28;20248;-87
2022/03/16 12:25:26;;;;;;;15.67;8.30;;;15.70;99.90;;;;;;5031536;28;20728;-88
2022/03/16 12:30:52;;;;;;;14.33;9.30;;;15.90;99.90;;;;;;5049796;28;20253;-87
2022/03/16 12:33:25;;;;;;;14.87;9.13;;;16.00;99.90;;;;;;5019452;28;20209;-86
2022/03/16 12:35:59;;;;;;;14.90;8.97;;;16.00;99.90;;;;;;5048957;28;20220;-87
2022/03/16 12:38:29;;;;;;;17.27;9.53;;;16.10;99.90;;;;;;5042545;28;20298;-87
2022/03/16 12:43:48;;;;;;;16.67;8.90;;;16.20;99.90;;;;;;5044408;28;20723;-88
2022/03/16 12:46:33;;;;;;;15.67;9.80;;;15.90;99.90;;;;;;5046441;28;20252;-87
2022/03/16 12:49:11;;;;;;;16.50;10.40;;;15.90;99.90;;;;;;5046611;28;20202;-87
2022/03/16 12:51:45;;;;;;;15.60;9.43;;;15.80;99.90;;;;;;5044605;28;20637;-89
2022/03/16 12:54:22;;;;;;;14.10;9.10;;;15.70;99.90;;;;;;5047420;28;20236;-88
2022/03/16 12:56:51;;;;;;;18.97;9.87;;;15.60;99.90;;;;;;5049491;28;20200;-87
2022/03/16 12:59:27;;;;;;;16.30;9.60;;;15.60;99.90;;;;;;5055039;28;20550;-87
2022/03/16 13:01:58;;;;;;;15.37;9.77;;;15.60;99.90;;;;;;5068798;28;20212;-87
2022/03/16 13:04:26;;;;;;;16.23;9.70;;;15.60;99.90;;;;;;5061122;28;20200;-87
2022/03/16 13:06:58;;;;;;;17.23;10.50;;;15.60;99.90;;;;;;5086965;28;20261;-89
2022/03/16 13:09:29;;;;;;;14.03;10.00;;;15.70;99.90;;;;;;5078692;28;20208;-88
2022/03/16 13:12:10;;;;;;;15.90;9.57;;;15.70;99.90;;;;;;5061778;28;20239;-87
2022/03/16 13:14:41;;;;;;;14.70;9.60;;;15.80;99.90;;;;;;5061022;28;20254;-88
2022/03/16 13:17:08;;;;;;;15.50;10.13;;;15.90;99.90;;;;;;5082896;28;20197;-90